createdAt,value
2018-06-20T00:03:09.487Z,57.2
2018-06-20T00:08:06.710Z,57.1
2018-06-20T00:13:03.457Z,56.8
2018-06-20T00:18:00.849Z,57
2018-06-20T00:22:57.879Z,57.6
2018-06-20T00:27:55.285Z,57.9
2018-06-20T00:32:52.379Z,58.2
2018-06-20T00:37:49.521Z,58.1
2018-06-20T00:42:46.839Z,58.6
2018-06-20T00:47:44.005Z,58
2018-06-20T00:52:41.035Z,57.9
2018-06-20T00:57:38.338Z,58.3
2018-06-20T01:02:35.620Z,58
2018-06-20T01:07:32.870Z,58.2
2018-06-20T01:12:30.507Z,58.5
2018-06-20T01:17:27.797Z,58.5
2018-06-20T01:22:24.799Z,59
2018-06-20T01:27:23.153Z,58.8
2018-06-20T01:32:20.133Z,59.3
2018-06-20T01:37:17.312Z,58.8
2018-06-20T01:42:14.548Z,58.5
2018-06-20T01:47:11.818Z,59
2018-06-20T01:52:08.870Z,59.3
2018-06-20T01:57:06.091Z,59.3
2018-06-20T02:02:03.137Z,59.5
2018-06-20T02:07:00.047Z,59.6
2018-06-20T02:11:57.269Z,59.9
2018-06-20T02:16:54.613Z,60.2
2018-06-20T02:21:51.784Z,60.3
2018-06-20T02:26:48.916Z,60.9
2018-06-20T02:31:46.445Z,61.4
2018-06-20T02:36:44.143Z,61.3
2018-06-20T02:41:41.430Z,61.5
2018-06-20T02:46:38.686Z,61.4
2018-06-20T02:51:35.819Z,61.1
2018-06-20T02:56:33.098Z,61.1
2018-06-20T03:01:30.167Z,61.5
2018-06-20T03:06:27.457Z,61.5
2018-06-20T03:11:24.525Z,61.6
2018-06-20T03:16:22.008Z,61.7
2018-06-20T03:21:19.479Z,61.5
2018-06-20T03:26:16.887Z,61.7
2018-06-20T03:31:14.508Z,61.7
2018-06-20T03:36:11.987Z,61.7
2018-06-20T03:41:09.456Z,62.2
2018-06-20T03:46:06.449Z,62.1
2018-06-20T03:51:04.021Z,62
2018-06-20T03:56:01.168Z,61.9
2018-06-20T04:00:58.330Z,62
2018-06-20T04:05:55.185Z,62
2018-06-20T04:10:52.398Z,62.2
2018-06-20T04:15:49.282Z,62.1
2018-06-20T04:20:46.785Z,62.1
2018-06-20T04:25:43.878Z,62.2
2018-06-20T04:30:41.375Z,62.3
2018-06-20T04:35:39.096Z,62.6
2018-06-20T04:40:42.773Z,62.7
2018-06-20T04:45:38.023Z,62.8
2018-06-20T04:50:35.224Z,62.8
2018-06-20T04:55:32.828Z,63.1
2018-06-20T05:00:29.957Z,63
2018-06-20T05:05:27.599Z,62.9
2018-06-20T05:10:24.497Z,63
2018-06-20T05:15:21.664Z,63.2
2018-06-20T05:20:18.381Z,62.8
2018-06-20T05:25:15.475Z,62.9
2018-06-20T05:30:12.764Z,62.7
2018-06-20T05:35:10.312Z,62.7
2018-06-20T05:40:07.456Z,62.6
2018-06-20T05:45:04.275Z,62.9
2018-06-20T05:50:01.378Z,62.7
2018-06-20T05:54:58.863Z,62.8
2018-06-20T05:59:56.360Z,62.8
2018-06-20T06:04:53.387Z,62.8
2018-06-20T06:09:49.984Z,62.7
2018-06-20T06:14:46.913Z,62.8
2018-06-20T06:19:44.106Z,62.8
2018-06-20T06:24:41.492Z,62.9
2018-06-20T06:29:38.498Z,62.5
2018-06-20T06:34:35.334Z,62.7
2018-06-20T06:39:32.401Z,62.4
2018-06-20T06:44:29.575Z,62.5
2018-06-20T06:49:26.459Z,62.3
2018-06-20T06:54:23.521Z,62.2
2018-06-20T06:59:20.877Z,62
2018-06-20T07:04:17.910Z,61.9
2018-06-20T07:09:15.008Z,61.5
2018-06-20T07:14:12.656Z,61.1
2018-06-20T07:19:09.028Z,61.4
2018-06-20T07:24:06.243Z,61.5
2018-06-20T07:29:03.848Z,61.2
2018-06-20T07:34:00.450Z,61.1
2018-06-20T07:38:57.845Z,61
2018-06-20T07:43:55.486Z,60.4
2018-06-20T07:48:52.618Z,60.2
2018-06-20T07:53:49.700Z,59.4
2018-06-20T07:58:46.812Z,59.6
2018-06-20T08:03:44.094Z,58.9
2018-06-20T08:08:41.673Z,58.5
2018-06-20T08:13:38.876Z,57.9
2018-06-20T08:18:36.306Z,58.2
2018-06-20T08:23:33.706Z,57.7
2018-06-20T08:28:30.250Z,57.5
2018-06-20T08:33:27.546Z,57
2018-06-20T08:38:24.535Z,56.1
2018-06-20T08:43:22.106Z,55.9
2018-06-20T08:48:19.107Z,55.9
2018-06-20T08:53:16.269Z,55.4
2018-06-20T08:58:13.677Z,55.3
2018-06-20T09:03:10.448Z,54.7
2018-06-20T09:08:07.632Z,54.2
2018-06-20T09:13:05.149Z,53.9
2018-06-20T09:18:02.835Z,53.7
2018-06-20T09:23:03.248Z,53.5
2018-06-20T09:28:00.047Z,53
2018-06-20T09:32:57.616Z,52.2
2018-06-20T09:37:54.769Z,51.7
2018-06-20T09:42:52.109Z,50.6
2018-06-20T09:47:49.554Z,50
2018-06-20T09:52:46.610Z,48.9
2018-06-20T09:57:43.992Z,48
2018-06-20T10:02:41.480Z,48.4
2018-06-20T10:07:44.944Z,48.9
2018-06-20T10:12:41.050Z,45.8
2018-06-20T10:17:38.360Z,45.3
2018-06-20T10:22:35.443Z,43.9
2018-06-20T10:27:32.911Z,44
2018-06-20T10:32:30.167Z,42.2
2018-06-20T10:37:27.852Z,43.4
2018-06-20T10:42:25.192Z,43
2018-06-20T10:47:24.628Z,42
2018-06-20T10:52:21.546Z,42.6
2018-06-20T10:57:18.908Z,42.6
2018-06-20T11:02:16.675Z,41.1
2018-06-20T11:07:14.900Z,40.8
2018-06-20T11:12:12.159Z,40.6
2018-06-20T11:17:09.582Z,40.5
2018-06-20T11:22:06.876Z,40.9
2018-06-20T11:27:10.444Z,40.7
2018-06-20T11:32:06.601Z,40.3
2018-06-20T11:37:03.930Z,39.4
2018-06-20T11:42:01.563Z,38.7
2018-06-20T11:46:59.457Z,38.7
2018-06-20T11:51:56.940Z,39
2018-06-20T11:56:54.367Z,38.5
2018-06-20T12:01:51.319Z,38.5
2018-06-20T12:06:48.332Z,37.2
2018-06-20T12:11:45.300Z,37.3
2018-06-20T12:16:49.041Z,36.4
2018-06-20T12:21:44.920Z,34.7
2018-06-20T12:26:42.447Z,34.2
2018-06-20T12:31:40.223Z,33.5
2018-06-20T12:36:37.629Z,34.2
2018-06-20T12:41:34.961Z,34.1
2018-06-20T12:46:32.751Z,34.2
2018-06-20T12:51:30.179Z,34.1
2018-06-20T12:56:27.657Z,33.8
2018-06-20T13:01:24.806Z,33.3
2018-06-20T13:06:22.000Z,33.4
2018-06-20T13:11:19.686Z,32
2018-06-20T13:16:17.710Z,31.5
2018-06-20T13:21:15.678Z,30.6
2018-06-20T13:26:13.611Z,31
2018-06-20T13:31:10.807Z,31
2018-06-20T13:36:08.057Z,30.9
2018-06-20T13:41:05.191Z,31
2018-06-20T13:46:02.561Z,31.4
2018-06-20T13:50:59.803Z,31.1
2018-06-20T13:55:57.021Z,31.6
2018-06-20T14:00:54.317Z,31.5
2018-06-20T14:05:51.551Z,31.7
2018-06-20T14:10:49.165Z,33.1
2018-06-20T14:15:46.319Z,33.7
2018-06-20T14:20:43.533Z,33.9
2018-06-20T14:25:41.241Z,34
2018-06-20T14:30:38.467Z,34.7
2018-06-20T14:35:35.852Z,35.6
2018-06-20T14:40:33.122Z,36.2
2018-06-20T14:45:30.242Z,36.1
2018-06-20T14:50:27.079Z,35.5
2018-06-20T14:55:24.664Z,35
2018-06-20T15:00:21.561Z,35.2
2018-06-20T15:05:19.030Z,35.1
2018-06-20T15:10:15.783Z,35.6
2018-06-20T15:15:13.527Z,35.7
2018-06-20T15:20:10.773Z,35.7
2018-06-20T15:25:08.007Z,35.4
2018-06-20T15:30:05.478Z,35.3
2018-06-20T15:35:02.766Z,35.7
2018-06-20T15:39:59.815Z,35.9
2018-06-20T15:44:57.578Z,35.2
2018-06-20T15:49:54.773Z,35.1
2018-06-20T15:54:52.140Z,34.9
2018-06-20T15:59:49.489Z,35.3
2018-06-20T16:04:46.591Z,35.6
2018-06-20T16:09:43.891Z,35.7
2018-06-20T16:14:41.081Z,35.7
2018-06-20T16:19:37.892Z,36.1
2018-06-20T16:24:35.156Z,36.2
2018-06-20T16:29:32.164Z,36.3
2018-06-20T16:34:30.615Z,36.6
2018-06-20T16:39:27.380Z,36.9
2018-06-20T16:44:24.759Z,37.2
2018-06-20T16:49:21.731Z,37.4
2018-06-20T16:54:18.909Z,37.5
2018-06-20T16:59:16.311Z,37.9
2018-06-20T17:04:13.398Z,38.3
2018-06-20T17:09:10.585Z,38.6
2018-06-20T17:14:07.939Z,39
2018-06-20T17:19:05.235Z,39.2
2018-06-20T17:24:02.714Z,39.2
2018-06-20T17:28:59.968Z,39.1
2018-06-20T17:33:57.469Z,39.4
2018-06-20T17:38:54.980Z,39.5
2018-06-20T17:43:52.106Z,39.9
2018-06-20T17:48:49.140Z,40
2018-06-20T17:53:46.672Z,40.2
2018-06-20T17:58:43.750Z,40.3
2018-06-20T18:03:40.877Z,40.7
2018-06-20T18:08:38.325Z,41
2018-06-20T18:13:35.588Z,41.3
2018-06-20T18:18:32.874Z,41.4
2018-06-20T18:23:30.246Z,41.7
2018-06-20T18:28:27.354Z,42
2018-06-20T18:33:24.680Z,42.3
2018-06-20T18:38:21.889Z,42.6
2018-06-20T18:43:19.003Z,42.9
2018-06-20T18:48:16.382Z,43.2
2018-06-20T18:53:13.682Z,43.2
2018-06-20T18:58:10.560Z,43.3
2018-06-20T19:03:08.231Z,43.7
2018-06-20T19:08:05.145Z,43.5
2018-06-20T19:13:02.876Z,43.9
2018-06-20T19:18:00.317Z,43.9
2018-06-20T19:22:57.589Z,44
2018-06-20T19:27:55.026Z,44
2018-06-20T19:32:52.240Z,44.3
2018-06-20T19:37:49.217Z,44.5
2018-06-20T19:42:46.493Z,44.6
2018-06-20T19:47:43.721Z,44.6
2018-06-20T19:52:41.061Z,45
2018-06-20T19:57:38.206Z,44.8
2018-06-20T20:02:35.547Z,45.3
2018-06-20T20:07:32.764Z,45.5
2018-06-20T20:12:30.077Z,45.8
2018-06-20T20:17:26.880Z,45.9
2018-06-20T20:22:24.221Z,46
2018-06-20T20:27:21.508Z,46.2
2018-06-20T20:32:18.750Z,46.1
2018-06-20T20:37:15.875Z,46.2
2018-06-20T20:42:13.210Z,46.4
2018-06-20T20:47:10.641Z,46.6
2018-06-20T20:52:08.116Z,46.7
2018-06-20T20:57:05.204Z,46.6
2018-06-20T21:02:02.296Z,46.7
2018-06-20T21:06:59.464Z,46.6
2018-06-20T21:11:56.565Z,46.8
2018-06-20T21:16:53.844Z,47.2
2018-06-20T21:21:51.159Z,47.4
2018-06-20T21:26:48.352Z,47.6
2018-06-20T21:31:45.189Z,47.7
2018-06-20T21:36:42.213Z,48.1
2018-06-20T21:41:39.658Z,48.2
2018-06-20T21:46:36.747Z,48.7
2018-06-20T21:51:34.276Z,48.9
2018-06-20T21:56:31.576Z,49.1
2018-06-20T22:01:28.645Z,49.3
2018-06-20T22:06:26.278Z,49.5
2018-06-20T22:11:23.569Z,49.6
2018-06-20T22:16:21.005Z,49.9
2018-06-20T22:21:18.936Z,49.8
2018-06-20T22:26:16.648Z,50.1
2018-06-20T22:31:14.208Z,50.4
2018-06-20T22:36:11.059Z,50.5
2018-06-20T22:41:07.948Z,50.8
2018-06-20T22:46:05.543Z,50.9
2018-06-20T22:51:02.911Z,51.1
2018-06-20T22:56:00.293Z,51.3
2018-06-20T23:00:57.693Z,51.5
2018-06-20T23:05:54.741Z,51.7
2018-06-20T23:10:52.219Z,51.7
2018-06-20T23:15:49.353Z,51.9
2018-06-20T23:20:46.803Z,52.2
2018-06-20T23:25:43.936Z,52.2
2018-06-20T23:30:41.128Z,52.1
2018-06-20T23:35:38.113Z,52.2
2018-06-20T23:40:35.727Z,52.4
2018-06-20T23:45:32.971Z,52.5
2018-06-20T23:50:30.342Z,52.8
2018-06-20T23:55:27.630Z,52.7
